createdAt,value
2023-05-14T00:00:40.490Z,96.70
2023-05-14T00:03:11.130Z,96.70
2023-05-14T00:05:38.183Z,96.70
2023-05-14T00:08:05.482Z,96.60
2023-05-14T00:10:32.555Z,96.60
2023-05-14T00:12:59.430Z,96.60
2023-05-14T00:15:26.458Z,96.60
2023-05-14T00:17:53.407Z,96.60
2023-05-14T00:20:23.106Z,96.50
2023-05-14T00:22:53.292Z,96.50
2023-05-14T00:25:20.504Z,96.60
2023-05-14T00:27:50.349Z,96.70
2023-05-14T00:30:19.857Z,96.70
2023-05-14T00:32:46.753Z,96.70
2023-05-14T00:35:21.608Z,96.80
2023-05-14T00:37:48.747Z,96.90
2023-05-14T00:40:17.734Z,97.00
2023-05-14T00:42:45.217Z,97.00
2023-05-14T00:45:14.264Z,97.20
2023-05-14T00:47:41.261Z,97.20
2023-05-14T00:50:09.038Z,97.20
2023-05-14T00:52:37.596Z,97.20
2023-05-14T00:55:06.071Z,97.20
2023-05-14T00:57:34.422Z,97.30
2023-05-14T01:00:01.893Z,97.30
2023-05-14T01:02:30.646Z,97.30
2023-05-14T01:04:58.179Z,97.30
2023-05-14T01:07:32.148Z,97.20
2023-05-14T01:10:25.920Z,97.20
2023-05-14T01:13:33.170Z,97.10
2023-05-14T01:16:00.722Z,97.00
2023-05-14T01:18:30.480Z,96.90
2023-05-14T01:21:01.968Z,96.90
2023-05-14T01:23:28.846Z,96.90
2023-05-14T01:26:01.210Z,96.90
2023-05-14T01:28:35.823Z,97.00
2023-05-14T01:31:11.131Z,97.20
2023-05-14T01:33:42.464Z,97.30
2023-05-14T01:36:10.461Z,97.40
2023-05-14T01:38:45.684Z,97.50
2023-05-14T01:41:17.858Z,97.60
2023-05-14T01:43:45.716Z,97.70
2023-05-14T01:46:12.938Z,97.70
2023-05-14T01:48:41.389Z,97.80
2023-05-14T01:51:08.905Z,97.80
2023-05-14T01:53:35.874Z,97.80
2023-05-14T01:56:03.453Z,97.80
2023-05-14T01:58:30.376Z,97.80
2023-05-14T02:00:57.289Z,97.70
2023-05-14T02:03:26.450Z,97.70
2023-05-14T02:05:53.314Z,97.70
2023-05-14T02:08:21.076Z,97.70
2023-05-14T02:10:51.321Z,97.60
2023-05-14T02:13:20.202Z,97.50
2023-05-14T02:15:47.343Z,97.40
2023-05-14T02:18:19.623Z,97.40
2023-05-14T02:20:46.904Z,97.50
2023-05-14T02:23:13.842Z,97.50
2023-05-14T02:25:40.850Z,97.60
2023-05-14T02:28:07.914Z,97.60
2023-05-14T02:30:34.917Z,97.60
2023-05-14T02:33:02.087Z,97.60
2023-05-14T02:35:29.118Z,97.60
2023-05-14T02:37:59.831Z,97.60
2023-05-14T02:40:28.200Z,97.60
2023-05-14T02:42:55.053Z,97.50
2023-05-14T02:45:22.097Z,97.50
2023-05-14T02:47:50.174Z,97.80
2023-05-14T02:50:17.202Z,97.50
2023-05-14T02:52:44.141Z,97.60
2023-05-14T02:55:15.993Z,97.70
2023-05-14T02:57:45.779Z,97.90
2023-05-14T03:00:15.307Z,97.90
2023-05-14T03:02:43.639Z,98.00
2023-05-14T03:05:11.234Z,98.00
2023-05-14T03:07:41.251Z,98.00
2023-05-14T03:10:08.535Z,98.00
2023-05-14T03:12:35.571Z,98.00
2023-05-14T03:15:05.125Z,98.10
2023-05-14T03:17:32.126Z,98.10
2023-05-14T03:19:59.228Z,98.20
2023-05-14T03:22:29.166Z,98.20
2023-05-14T03:25:00.020Z,98.20
2023-05-14T03:27:29.664Z,98.30
2023-05-14T03:29:56.789Z,98.30
2023-05-14T03:32:23.782Z,98.40
2023-05-14T03:34:54.349Z,98.50
2023-05-14T03:37:21.580Z,98.50
2023-05-14T03:39:51.158Z,98.70
2023-05-14T03:42:18.172Z,98.80
2023-05-14T03:44:45.265Z,98.90
2023-05-14T03:47:16.163Z,99.00
2023-05-14T03:49:43.295Z,99.00
2023-05-14T03:52:12.165Z,98.90
2023-05-14T03:54:43.873Z,99.00
2023-05-14T03:57:11.315Z,99.20
2023-05-14T03:59:38.148Z,99.20
2023-05-14T04:02:05.150Z,99.20
2023-05-14T04:04:32.172Z,99.10
2023-05-14T04:06:59.185Z,99.00
2023-05-14T04:09:28.793Z,98.90
2023-05-14T04:11:57.120Z,98.90
2023-05-14T04:14:24.207Z,98.90
2023-05-14T04:16:51.394Z,98.90
2023-05-14T04:19:18.737Z,98.90
2023-05-14T04:21:47.175Z,99.00
2023-05-14T04:24:14.045Z,99.00
2023-05-14T04:26:40.995Z,99.10
2023-05-14T04:29:10.296Z,99.20
2023-05-14T04:31:37.294Z,99.30
2023-05-14T04:34:04.222Z,99.30
2023-05-14T04:36:31.685Z,99.30
2023-05-14T04:38:58.576Z,99.40
2023-05-14T04:41:25.640Z,99.50
2023-05-14T04:43:59.389Z,99.60
2023-05-14T04:46:26.816Z,99.60
2023-05-14T04:48:53.712Z,99.60
2023-05-14T04:51:20.819Z,99.60
2023-05-14T04:53:47.708Z,99.60
2023-05-14T04:56:14.583Z,99.50
2023-05-14T04:58:46.328Z,99.40
2023-05-14T05:01:16.528Z,99.40
2023-05-14T05:03:43.533Z,99.50
2023-05-14T05:06:10.605Z,99.50
2023-05-14T05:08:37.867Z,99.60
2023-05-14T05:11:05.409Z,99.70
2023-05-14T05:13:32.329Z,99.80
2023-05-14T05:15:59.785Z,99.80
2023-05-14T05:18:31.058Z,99.90
2023-05-14T05:21:00.752Z,99.80
2023-05-14T05:23:27.582Z,99.80
2023-05-14T05:25:54.562Z,99.90
2023-05-14T05:28:21.432Z,99.90
2023-05-14T05:30:48.476Z,99.90
2023-05-14T05:33:18.098Z,99.90
2023-05-14T05:35:45.398Z,99.90
2023-05-14T05:38:12.354Z,99.90
2023-05-14T05:40:39.295Z,99.90
2023-05-14T05:43:06.217Z,99.90
2023-05-14T05:45:33.259Z,99.90
2023-05-14T05:48:00.293Z,99.90
2023-05-14T05:50:27.352Z,99.90
2023-05-14T05:52:56.817Z,99.90
2023-05-14T05:55:23.805Z,99.90
2023-05-14T05:57:52.981Z,99.90
2023-05-14T06:00:20.621Z,99.90
2023-05-14T06:02:50.212Z,99.90
2023-05-14T06:05:19.814Z,99.90
2023-05-14T06:07:46.792Z,99.90
2023-05-14T06:10:13.814Z,99.90
2023-05-14T06:12:40.916Z,99.90
2023-05-14T06:15:08.341Z,99.90
2023-05-14T06:17:35.278Z,99.90
2023-05-14T06:20:03.665Z,99.90
2023-05-14T06:22:32.997Z,99.90
2023-05-14T06:25:00.033Z,99.90
2023-05-14T06:27:29.061Z,99.90
2023-05-14T06:29:56.401Z,99.90
2023-05-14T06:32:25.836Z,99.90
2023-05-14T06:34:55.526Z,99.90
2023-05-14T06:37:22.379Z,99.90
2023-05-14T06:39:50.509Z,99.90
2023-05-14T06:42:18.422Z,99.90
2023-05-14T06:44:45.915Z,99.90
2023-05-14T06:47:13.023Z,99.90
2023-05-14T06:49:42.711Z,99.90
2023-05-14T06:52:12.391Z,99.90
2023-05-14T06:54:39.488Z,99.90
2023-05-14T06:57:06.433Z,99.90
2023-05-14T06:59:33.417Z,99.90
2023-05-14T07:02:01.324Z,99.90
2023-05-14T07:04:28.276Z,99.70
2023-05-14T07:06:55.162Z,99.10
2023-05-14T07:09:24.577Z,98.90
2023-05-14T07:11:51.707Z,98.50
2023-05-14T07:14:23.145Z,98.30
2023-05-14T07:16:54.179Z,98.00
2023-05-14T07:19:24.639Z,97.80
2023-05-14T07:21:51.551Z,97.80
2023-05-14T07:24:18.509Z,97.50
2023-05-14T07:26:45.579Z,97.50
2023-05-14T07:29:12.575Z,97.50
2023-05-14T07:31:39.546Z,97.50
2023-05-14T07:34:08.783Z,97.70
2023-05-14T07:36:37.762Z,97.70
2023-05-14T07:39:07.231Z,97.80
2023-05-14T07:41:34.025Z,97.90
2023-05-14T07:44:01.060Z,98.10
2023-05-14T07:46:27.972Z,98.20
2023-05-14T07:48:55.000Z,98.30
2023-05-14T07:51:25.017Z,98.40
2023-05-14T07:53:52.138Z,98.50
2023-05-14T07:56:20.006Z,98.50
2023-05-14T07:58:47.008Z,98.40
2023-05-14T08:01:14.042Z,98.50
2023-05-14T08:03:41.059Z,98.60
2023-05-14T08:06:12.990Z,98.50
2023-05-14T08:08:39.968Z,98.40
2023-05-14T08:11:06.914Z,98.40
2023-05-14T08:13:37.506Z,98.40
2023-05-14T08:16:04.614Z,98.40
2023-05-14T08:18:34.149Z,98.50
2023-05-14T08:21:03.182Z,98.70
2023-05-14T08:23:30.837Z,98.50
2023-05-14T08:25:57.831Z,98.50
2023-05-14T08:28:25.268Z,98.70
2023-05-14T08:30:52.437Z,98.70
2023-05-14T08:33:20.548Z,98.50
2023-05-14T08:35:48.562Z,98.40
2023-05-14T08:38:15.638Z,98.50
2023-05-14T08:40:42.877Z,98.60
2023-05-14T08:43:11.773Z,98.60
2023-05-14T08:45:43.396Z,98.60
2023-05-14T08:48:15.601Z,98.70
2023-05-14T08:50:43.717Z,98.80
2023-05-14T08:53:12.007Z,98.70
2023-05-14T08:55:40.382Z,98.60
2023-05-14T08:58:07.294Z,98.40
2023-05-14T09:00:34.384Z,98.40
2023-05-14T09:03:02.230Z,98.10
2023-05-14T09:05:33.419Z,97.90
2023-05-14T09:08:02.447Z,98.00
2023-05-14T09:10:29.347Z,97.70
2023-05-14T09:12:56.449Z,97.10
2023-05-14T09:15:27.226Z,97.00
2023-05-14T09:17:54.283Z,97.20
2023-05-14T09:20:28.972Z,97.10
2023-05-14T09:22:56.684Z,97.40
2023-05-14T09:25:28.427Z,97.30
2023-05-14T09:27:58.571Z,96.90
2023-05-14T09:30:28.886Z,96.50
2023-05-14T09:32:56.072Z,96.10
2023-05-14T09:35:28.229Z,95.60
2023-05-14T09:37:55.888Z,95.60
2023-05-14T09:40:24.657Z,95.80
2023-05-14T09:42:52.086Z,96.10
2023-05-14T09:45:24.137Z,96.20
2023-05-14T09:47:53.550Z,95.90
2023-05-14T09:50:22.024Z,95.80
2023-05-14T09:52:57.420Z,96.00
2023-05-14T09:55:25.839Z,96.10
2023-05-14T09:57:52.748Z,95.40
2023-05-14T10:00:20.159Z,95.10
2023-05-14T10:02:47.907Z,95.10
2023-05-14T10:05:16.221Z,95.30
2023-05-14T10:07:49.517Z,95.30
2023-05-14T10:10:19.646Z,95.50
2023-05-14T10:12:55.632Z,95.80
2023-05-14T10:15:48.923Z,96.00
2023-05-14T10:18:19.695Z,95.80
2023-05-14T10:21:09.177Z,95.50
2023-05-14T10:23:40.797Z,95.30
2023-05-14T10:26:08.959Z,95.40
2023-05-14T10:28:36.565Z,95.10
2023-05-14T10:31:03.559Z,95.60
2023-05-14T10:33:30.455Z,95.80
2023-05-14T10:36:05.740Z,96.10
2023-05-14T10:38:36.009Z,96.60
2023-05-14T10:41:07.395Z,97.30
2023-05-14T10:43:41.671Z,97.70
2023-05-14T10:46:10.575Z,98.00
2023-05-14T10:48:39.349Z,98.40
2023-05-14T10:51:09.325Z,98.70
2023-05-14T10:53:38.318Z,98.90
2023-05-14T10:56:09.372Z,99.00
2023-05-14T10:58:44.911Z,99.10
2023-05-14T11:01:13.694Z,99.00
2023-05-14T11:03:46.251Z,98.90
2023-05-14T11:06:16.267Z,98.60
2023-05-14T11:08:44.502Z,98.70
2023-05-14T11:11:14.019Z,98.80
2023-05-14T11:13:41.612Z,98.70
2023-05-14T11:16:21.779Z,98.80
2023-05-14T11:19:07.462Z,98.60
2023-05-14T11:21:34.502Z,98.50
2023-05-14T11:24:01.769Z,98.50
2023-05-14T11:26:28.851Z,98.60
2023-05-14T11:28:55.962Z,98.70
2023-05-14T11:31:24.220Z,98.60
2023-05-14T11:33:52.674Z,98.80
2023-05-14T11:36:21.650Z,98.90
2023-05-14T11:38:51.282Z,98.90
2023-05-14T11:41:21.055Z,98.90
2023-05-14T11:43:50.084Z,98.70
2023-05-14T11:46:19.905Z,98.60
2023-05-14T11:48:47.339Z,98.60
2023-05-14T11:51:14.307Z,98.30
2023-05-14T11:53:41.339Z,98.00
2023-05-14T11:56:09.764Z,97.80
2023-05-14T11:58:37.169Z,98.00
2023-05-14T12:01:06.239Z,98.10
2023-05-14T12:03:33.334Z,98.10
2023-05-14T12:06:02.125Z,98.00
2023-05-14T12:08:31.348Z,97.60
2023-05-14T12:11:00.002Z,96.90
2023-05-14T12:13:28.988Z,96.40
2023-05-14T12:15:58.260Z,96.20
2023-05-14T12:18:26.257Z,96.10
2023-05-14T12:20:55.958Z,96.00
2023-05-14T12:23:27.807Z,95.90
2023-05-14T12:25:54.850Z,95.70
2023-05-14T12:28:23.509Z,95.00
2023-05-14T12:30:57.422Z,95.00
2023-05-14T12:33:26.541Z,94.60
2023-05-14T12:35:54.261Z,94.00
2023-05-14T12:38:21.260Z,93.90
2023-05-14T12:40:50.540Z,93.50
2023-05-14T12:43:17.459Z,93.60
2023-05-14T12:45:46.956Z,93.80
2023-05-14T12:48:14.814Z,93.30
2023-05-14T12:50:43.666Z,93.70
2023-05-14T12:53:16.744Z,93.40
2023-05-14T12:55:46.311Z,93.40
2023-05-14T12:58:13.209Z,93.40
2023-05-14T13:00:40.244Z,93.70
2023-05-14T13:03:07.206Z,93.40
2023-05-14T13:05:37.340Z,93.20
2023-05-14T13:08:09.845Z,92.80
2023-05-14T13:10:39.117Z,92.80
2023-05-14T13:13:06.054Z,93.10
2023-05-14T13:15:33.771Z,92.80
2023-05-14T13:18:06.756Z,93.10
2023-05-14T13:20:34.621Z,91.60
2023-05-14T13:23:01.494Z,91.30
2023-05-14T13:25:28.464Z,91.30
2023-05-14T13:27:56.095Z,91.30
2023-05-14T13:30:23.080Z,91.30
2023-05-14T13:32:49.995Z,91.30
2023-05-14T13:35:17.321Z,91.70
2023-05-14T13:37:44.373Z,91.90
2023-05-14T13:40:11.949Z,91.40
2023-05-14T13:42:40.133Z,91.00
2023-05-14T13:45:07.977Z,90.30
2023-05-14T13:47:34.976Z,90.10
2023-05-14T13:50:02.030Z,90.30
2023-05-14T13:52:28.944Z,90.30
2023-05-14T13:54:58.269Z,89.40
2023-05-14T13:57:25.202Z,88.30
2023-05-14T13:59:54.660Z,88.90
2023-05-14T14:02:21.638Z,90.10
2023-05-14T14:04:49.511Z,90.10
2023-05-14T14:07:18.928Z,89.40
2023-05-14T14:09:45.815Z,89.40
2023-05-14T14:12:14.499Z,88.60
2023-05-14T14:14:41.415Z,88.30
2023-05-14T14:17:09.077Z,88.70
2023-05-14T14:19:38.233Z,88.60
2023-05-14T14:22:05.651Z,88.30
2023-05-14T14:24:32.996Z,88.00
2023-05-14T14:27:02.277Z,87.90
2023-05-14T14:29:31.144Z,87.10
2023-05-14T14:31:58.205Z,86.90
2023-05-14T14:34:25.637Z,86.50
2023-05-14T14:36:52.544Z,86.60
2023-05-14T14:39:19.642Z,87.20
2023-05-14T14:41:48.685Z,88.00
2023-05-14T14:44:15.794Z,88.40
2023-05-14T14:46:42.993Z,88.70
2023-05-14T14:49:13.791Z,89.60
2023-05-14T14:51:40.930Z,90.00
2023-05-14T14:54:07.875Z,88.80
2023-05-14T14:56:36.888Z,88.30
2023-05-14T14:59:06.198Z,88.90
2023-05-14T15:01:36.532Z,88.60
2023-05-14T15:04:03.766Z,87.70
2023-05-14T15:06:31.287Z,86.90
2023-05-14T15:08:59.232Z,86.00
2023-05-14T15:11:26.213Z,85.90
2023-05-14T15:13:55.257Z,85.90
2023-05-14T15:16:22.204Z,85.70
2023-05-14T15:18:49.334Z,85.90
2023-05-14T15:21:18.994Z,86.30
2023-05-14T15:23:46.023Z,86.70
2023-05-14T15:26:12.910Z,87.20
2023-05-14T15:28:49.502Z,87.10
2023-05-14T15:31:16.594Z,87.00
2023-05-14T15:33:46.130Z,87.40
2023-05-14T15:36:13.132Z,87.30
2023-05-14T15:38:40.589Z,88.30
2023-05-14T15:41:07.626Z,89.30
2023-05-14T15:43:34.551Z,89.70
2023-05-14T15:46:01.542Z,89.80
2023-05-14T15:48:28.519Z,90.40
2023-05-14T15:50:55.639Z,90.70
2023-05-14T15:53:22.755Z,91.10
2023-05-14T15:55:52.126Z,91.40
2023-05-14T15:58:21.726Z,91.80
2023-05-14T16:00:48.639Z,92.10
2023-05-14T16:03:17.881Z,92.40
2023-05-14T16:05:47.670Z,92.70
2023-05-14T16:08:16.869Z,93.00
2023-05-14T16:10:43.804Z,93.20
2023-05-14T16:13:10.686Z,93.60
2023-05-14T16:15:40.008Z,93.50
2023-05-14T16:18:07.050Z,93.60
2023-05-14T16:20:34.165Z,93.60
2023-05-14T16:23:01.091Z,93.90
2023-05-14T16:25:30.471Z,94.00
2023-05-14T16:27:57.513Z,94.10
2023-05-14T16:30:25.753Z,94.10
2023-05-14T16:32:52.798Z,94.20
2023-05-14T16:35:19.885Z,94.30
2023-05-14T16:37:49.052Z,94.40
2023-05-14T16:40:19.721Z,94.50
2023-05-14T16:42:49.024Z,94.70
2023-05-14T16:45:16.314Z,94.80
2023-05-14T16:47:46.250Z,95.00
2023-05-14T16:50:13.233Z,95.00
2023-05-14T16:52:40.207Z,95.10
2023-05-14T16:55:07.558Z,95.30
2023-05-14T16:57:38.013Z,95.30
2023-05-14T17:00:06.241Z,95.30
2023-05-14T17:02:33.712Z,95.20
2023-05-14T17:05:00.903Z,95.20
2023-05-14T17:07:28.012Z,95.40
2023-05-14T17:09:55.175Z,95.50
2023-05-14T17:12:23.818Z,95.60
2023-05-14T17:14:53.129Z,95.80
2023-05-14T17:17:20.052Z,95.80
2023-05-14T17:19:47.324Z,95.80
2023-05-14T17:22:17.283Z,95.80
2023-05-14T17:24:44.216Z,95.90
2023-05-14T17:27:11.237Z,96.00
2023-05-14T17:29:38.103Z,96.00
2023-05-14T17:32:05.367Z,96.00
2023-05-14T17:34:32.401Z,96.10
2023-05-14T17:37:00.808Z,96.20
2023-05-14T17:39:28.212Z,96.20
2023-05-14T17:41:55.221Z,96.20
2023-05-14T17:44:22.221Z,96.30
2023-05-14T17:46:49.954Z,96.30
2023-05-14T17:49:16.945Z,96.40
2023-05-14T17:51:43.869Z,96.50
2023-05-14T17:54:10.883Z,96.60
2023-05-14T17:56:40.246Z,96.70
2023-05-14T17:59:09.383Z,96.60
2023-05-14T18:01:38.611Z,96.60
2023-05-14T18:04:08.153Z,96.60
2023-05-14T18:06:35.564Z,96.70
2023-05-14T18:09:04.621Z,96.80
2023-05-14T18:11:34.045Z,96.90
2023-05-14T18:14:04.651Z,97.10
2023-05-14T18:16:31.742Z,97.10
2023-05-14T18:19:04.699Z,97.20
2023-05-14T18:21:32.420Z,97.30
2023-05-14T18:23:59.351Z,97.40
2023-05-14T18:26:26.754Z,97.50
2023-05-14T18:28:56.191Z,97.50
2023-05-14T18:31:23.214Z,97.70
2023-05-14T18:33:50.238Z,97.70
2023-05-14T18:36:19.627Z,97.80
2023-05-14T18:38:46.496Z,97.80
2023-05-14T18:41:13.471Z,97.80
2023-05-14T18:43:40.352Z,97.90
2023-05-14T18:46:07.484Z,98.00
2023-05-14T18:48:34.528Z,98.10
2023-05-14T18:51:01.555Z,98.10
2023-05-14T18:53:29.330Z,98.20
2023-05-14T18:56:00.108Z,98.20
2023-05-14T18:58:30.054Z,98.20
2023-05-14T19:00:58.969Z,98.20
2023-05-14T19:03:26.184Z,98.20
2023-05-14T19:05:53.723Z,98.50
2023-05-14T19:08:20.817Z,98.30
2023-05-14T19:10:50.929Z,98.30
2023-05-14T19:13:17.830Z,98.30
2023-05-14T19:15:47.882Z,98.30
2023-05-14T19:18:14.948Z,98.30
2023-05-14T19:20:42.508Z,98.20
2023-05-14T19:23:09.476Z,98.30
2023-05-14T19:25:40.987Z,98.40
2023-05-14T19:28:07.998Z,98.30
2023-05-14T19:30:34.841Z,98.40
2023-05-14T19:33:02.065Z,98.50
2023-05-14T19:35:29.141Z,98.60
2023-05-14T19:37:56.140Z,98.70
2023-05-14T19:40:25.816Z,98.60
2023-05-14T19:42:54.981Z,98.60
2023-05-14T19:45:24.192Z,98.60
2023-05-14T19:47:51.745Z,98.60
2023-05-14T19:50:18.700Z,98.60
2023-05-14T19:52:52.615Z,98.60
2023-05-14T19:55:23.208Z,98.60
2023-05-14T19:57:52.431Z,98.70
2023-05-14T20:00:21.458Z,98.80
2023-05-14T20:02:48.494Z,98.80
2023-05-14T20:05:21.355Z,98.80
2023-05-14T20:07:49.152Z,98.90
2023-05-14T20:10:18.517Z,98.90
2023-05-14T20:12:47.995Z,98.80
2023-05-14T20:15:14.971Z,98.90
2023-05-14T20:17:42.062Z,98.90
2023-05-14T20:20:12.214Z,98.90
2023-05-14T20:22:44.036Z,98.90
2023-05-14T20:25:11.156Z,98.80
2023-05-14T20:27:38.200Z,98.80
2023-05-14T20:30:06.094Z,98.80
2023-05-14T20:32:33.157Z,98.70
2023-05-14T20:35:02.180Z,98.70
2023-05-14T20:37:33.098Z,98.70
2023-05-14T20:40:01.331Z,98.70
2023-05-14T20:42:28.779Z,98.70
2023-05-14T20:44:55.862Z,98.70
2023-05-14T20:47:26.712Z,98.80
2023-05-14T20:49:53.942Z,98.90
2023-05-14T20:52:21.010Z,99.00
2023-05-14T20:54:49.058Z,99.00
2023-05-14T20:57:16.047Z,98.90
2023-05-14T20:59:43.113Z,98.80
2023-05-14T21:02:10.175Z,98.80
2023-05-14T21:04:37.475Z,98.90
2023-05-14T21:07:05.454Z,98.80
2023-05-14T21:09:33.526Z,98.90
2023-05-14T21:12:00.500Z,98.80
2023-05-14T21:14:27.412Z,98.70
2023-05-14T21:16:54.387Z,98.60
2023-05-14T21:19:22.193Z,98.70
2023-05-14T21:21:51.460Z,98.70
2023-05-14T21:24:19.036Z,98.70
2023-05-14T21:26:49.486Z,98.80
2023-05-14T21:29:17.256Z,98.80
2023-05-14T21:31:44.180Z,98.80
2023-05-14T21:34:11.227Z,98.90
2023-05-14T21:36:38.359Z,99.00
2023-05-14T21:39:05.625Z,99.00
2023-05-14T21:41:36.903Z,99.10
2023-05-14T21:44:03.882Z,99.10
2023-05-14T21:46:31.174Z,99.10
2023-05-14T21:48:58.317Z,99.20
2023-05-14T21:51:25.347Z,99.20
2023-05-14T21:53:52.320Z,99.10
2023-05-14T21:56:23.961Z,99.10
2023-05-14T21:58:50.919Z,99.00
2023-05-14T22:01:17.840Z,98.90
2023-05-14T22:03:44.826Z,98.90
2023-05-14T22:06:14.030Z,98.90
2023-05-14T22:08:41.027Z,98.90
2023-05-14T22:11:07.962Z,98.90
2023-05-14T22:13:37.557Z,98.90
2023-05-14T22:16:11.955Z,98.90
2023-05-14T22:18:39.856Z,98.90
2023-05-14T22:21:06.784Z,98.90
2023-05-14T22:23:35.040Z,98.90
2023-05-14T22:26:02.007Z,99.00
2023-05-14T22:28:30.120Z,99.20
2023-05-14T22:30:59.614Z,99.00
2023-05-14T22:33:26.744Z,99.00
2023-05-14T22:35:53.618Z,99.00
2023-05-14T22:38:21.263Z,99.00
2023-05-14T22:40:50.310Z,99.00
2023-05-14T22:43:17.288Z,99.00
2023-05-14T22:45:44.199Z,99.00
2023-05-14T22:48:11.137Z,99.00
2023-05-14T22:50:38.037Z,99.00
2023-05-14T22:53:05.113Z,99.00
2023-05-14T22:55:34.329Z,99.00
2023-05-14T22:58:01.366Z,99.00
2023-05-14T23:00:28.267Z,99.00
2023-05-14T23:02:55.839Z,99.40
2023-05-14T23:05:25.714Z,99.10
2023-05-14T23:07:53.482Z,99.10
2023-05-14T23:10:20.386Z,99.10
2023-05-14T23:12:49.207Z,99.20
2023-05-14T23:15:16.265Z,99.20
2023-05-14T23:17:43.341Z,99.20
2023-05-14T23:20:12.735Z,99.20
2023-05-14T23:22:40.832Z,99.20
2023-05-14T23:25:08.210Z,99.20
2023-05-14T23:27:35.596Z,99.20
2023-05-14T23:30:03.975Z,99.20
2023-05-14T23:32:32.276Z,99.30
2023-05-14T23:35:03.994Z,99.30
2023-05-14T23:37:31.192Z,99.30
2023-05-14T23:39:58.120Z,99.30
2023-05-14T23:42:27.615Z,99.40
2023-05-14T23:44:54.514Z,99.30
2023-05-14T23:47:21.588Z,99.30
2023-05-14T23:49:50.717Z,99.20
2023-05-14T23:52:17.933Z,99.20
2023-05-14T23:54:44.878Z,99.30
2023-05-14T23:57:15.297Z,99.30
2023-05-14T23:59:44.735Z,99.40
